sensor_id;sensor_type;location;lat;lon;timestamp;pressure;altitude;pressure_sealevel;temperature;humidity
14882;BME280;7533;51.278;12.588;2023-02-28T00:04:13;101496.81;;;20.18;61.83
14882;BME280;7533;51.278;12.588;2023-02-28T00:09:17;101493.94;;;20.23;61.71
14882;BME280;7533;51.278;12.588;2023-02-28T00:14:20;101491.13;;;20.26;61.55
14882;BME280;7533;51.278;12.588;2023-02-28T00:19:23;101492.66;;;20.31;61.38
14882;BME280;7533;51.278;12.588;2023-02-28T00:24:27;101496.00;;;20.37;61.22
14882;BME280;7533;51.278;12.588;2023-02-28T00:29:30;101493.19;;;20.40;61.17
14882;BME280;7533;51.278;12.588;2023-02-28T00:34:33;101486.63;;;20.45;60.97
14882;BME280;7533;51.278;12.588;2023-02-28T00:39:40;101490.09;;;20.49;60.85
14882;BME280;7533;51.278;12.588;2023-02-28T00:44:43;101483.69;;;20.51;60.80
14882;BME280;7533;51.278;12.588;2023-02-28T00:49:46;101491.66;;;20.54;61.05
14882;BME280;7533;51.278;12.588;2023-02-28T00:54:50;101484.22;;;20.59;60.74
14882;BME280;7533;51.278;12.588;2023-02-28T00:59:52;101480.50;;;20.62;60.75
14882;BME280;7533;51.278;12.588;2023-02-28T01:04:56;101474.09;;;20.65;60.62
14882;BME280;7533;51.278;12.588;2023-02-28T01:10:00;101480.22;;;20.68;60.44
14882;BME280;7533;51.278;12.588;2023-02-28T01:15:04;101480.00;;;20.73;60.44
14882;BME280;7533;51.278;12.588;2023-02-28T01:20:08;101477.16;;;20.76;60.50
14882;BME280;7533;51.278;12.588;2023-02-28T01:25:13;101477.91;;;20.79;60.48
14882;BME280;7533;51.278;12.588;2023-02-28T01:30:16;101481.31;;;20.83;60.35
14882;BME280;7533;51.278;12.588;2023-02-28T01:35:21;101478.47;;;20.86;60.36
14882;BME280;7533;51.278;12.588;2023-02-28T01:40:25;101480.16;;;20.89;60.26
14882;BME280;7533;51.278;12.588;2023-02-28T01:45:29;101473.75;;;20.91;60.09
14882;BME280;7533;51.278;12.588;2023-02-28T01:50:35;101473.66;;;20.93;59.99
14882;BME280;7533;51.278;12.588;2023-02-28T01:55:40;101461.91;;;20.95;60.04
14882;BME280;7533;51.278;12.588;2023-02-28T02:00:47;101463.50;;;20.99;60.07
14882;BME280;7533;51.278;12.588;2023-02-28T02:05:50;101465.25;;;21.00;60.16
14882;BME280;7533;51.278;12.588;2023-02-28T02:10:56;101456.13;;;21.03;60.08
14882;BME280;7533;51.278;12.588;2023-02-28T02:16:06;101456.94;;;21.05;59.93
14882;BME280;7533;51.278;12.588;2023-02-28T02:27:12;101454.00;;;21.09;60.00
14882;BME280;7533;51.278;12.588;2023-02-28T02:38:10;101449.25;;;21.14;60.02
14882;BME280;7533;51.278;12.588;2023-02-28T02:43:19;101444.75;;;21.15;60.01
14882;BME280;7533;51.278;12.588;2023-02-28T02:48:27;101445.56;;;21.17;59.56
14882;BME280;7533;51.278;12.588;2023-02-28T02:53:38;101448.09;;;21.20;59.84
14882;BME280;7533;51.278;12.588;2023-02-28T02:58:44;101446.22;;;21.22;59.98
14882;BME280;7533;51.278;12.588;2023-02-28T03:03:47;101451.66;;;21.21;59.90
14882;BME280;7533;51.278;12.588;2023-02-28T03:08:52;101443.81;;;21.16;60.15
14882;BME280;7533;51.278;12.588;2023-02-28T03:14:29;101453.63;;;21.17;60.05
14882;BME280;7533;51.278;12.588;2023-02-28T03:19:48;101453.69;;;21.16;60.14
14882;BME280;7533;51.278;12.588;2023-02-28T03:25:01;101457.44;;;21.13;60.23
14882;BME280;7533;51.278;12.588;2023-02-28T03:30:10;101465.88;;;21.05;60.73
14882;BME280;7533;51.278;12.588;2023-02-28T03:35:21;101467.06;;;21.00;60.79
14882;BME280;7533;51.278;12.588;2023-02-28T03:40:30;101466.63;;;20.90;61.09
14882;BME280;7533;51.278;12.588;2023-02-28T03:45:36;101464.22;;;20.84;61.37
14882;BME280;7533;51.278;12.588;2023-02-28T03:50:42;101460.00;;;20.78;61.43
14882;BME280;7533;51.278;12.588;2023-02-28T03:55:49;101458.31;;;20.76;61.59
14882;BME280;7533;51.278;12.588;2023-02-28T04:00:58;101461.00;;;20.76;61.97
14882;BME280;7533;51.278;12.588;2023-02-28T04:06:15;101464.81;;;20.72;61.89
14882;BME280;7533;51.278;12.588;2023-02-28T04:11:23;101464.81;;;20.72;61.96
14882;BME280;7533;51.278;12.588;2023-02-28T04:16:26;101471.19;;;20.69;61.79
14882;BME280;7533;51.278;12.588;2023-02-28T04:21:38;101470.41;;;20.67;62.18
14882;BME280;7533;51.278;12.588;2023-02-28T04:26:44;101467.94;;;20.63;62.25
14882;BME280;7533;51.278;12.588;2023-02-28T04:31:47;101471.56;;;20.62;62.08
14882;BME280;7533;51.278;12.588;2023-02-28T04:36:50;101475.34;;;20.57;61.98
14882;BME280;7533;51.278;12.588;2023-02-28T04:42:14;101475.34;;;20.57;61.50
14882;BME280;7533;51.278;12.588;2023-02-28T04:47:17;101485.41;;;20.54;61.50
14882;BME280;7533;51.278;12.588;2023-02-28T04:52:20;101479.41;;;20.47;61.41
14882;BME280;7533;51.278;12.588;2023-02-28T04:57:24;101483.03;;;20.46;61.31
14882;BME280;7533;51.278;12.588;2023-02-28T05:02:27;101483.16;;;20.43;61.25
14882;BME280;7533;51.278;12.588;2023-02-28T05:07:30;101483.22;;;20.42;61.27
14882;BME280;7533;51.278;12.588;2023-02-28T05:12:34;101481.63;;;20.38;61.22
14882;BME280;7533;51.278;12.588;2023-02-28T05:17:37;101482.53;;;20.37;61.10
14882;BME280;7533;51.278;12.588;2023-02-28T05:22:40;101488.00;;;20.35;60.85
14882;BME280;7533;51.278;12.588;2023-02-28T05:27:45;101489.16;;;20.29;60.95
14882;BME280;7533;51.278;12.588;2023-02-28T05:32:50;101492.78;;;20.28;61.03
14882;BME280;7533;51.278;12.588;2023-02-28T05:37:53;101488.44;;;20.26;60.94
14882;BME280;7533;51.278;12.588;2023-02-28T05:42:57;101500.25;;;20.22;61.00
14882;BME280;7533;51.278;12.588;2023-02-28T05:48:00;101498.66;;;20.18;61.07
14882;BME280;7533;51.278;12.588;2023-02-28T05:53:03;101502.41;;;20.14;61.02
14882;BME280;7533;51.278;12.588;2023-02-28T05:58:07;101510.53;;;20.12;61.17
14882;BME280;7533;51.278;12.588;2023-02-28T06:03:10;101518.75;;;20.09;61.23
14882;BME280;7533;51.278;12.588;2023-02-28T06:08:13;101526.06;;;20.05;61.19
14882;BME280;7533;51.278;12.588;2023-02-28T06:13:17;101525.41;;;20.00;61.33
14882;BME280;7533;51.278;12.588;2023-02-28T06:18:20;101537.28;;;19.95;61.35
14882;BME280;7533;51.278;12.588;2023-02-28T06:23:23;101541.78;;;19.94;61.50
14882;BME280;7533;51.278;12.588;2023-02-28T06:28:28;101543.59;;;19.94;61.28
14882;BME280;7533;51.278;12.588;2023-02-28T06:33:30;101549.09;;;19.91;61.46
14882;BME280;7533;51.278;12.588;2023-02-28T06:38:34;101549.28;;;19.86;61.61
14882;BME280;7533;51.278;12.588;2023-02-28T06:43:41;101553.94;;;19.83;61.50
14882;BME280;7533;51.278;12.588;2023-02-28T06:48:45;101556.63;;;19.83;61.38
14882;BME280;7533;51.278;12.588;2023-02-28T06:53:48;101563.84;;;19.80;61.64
14882;BME280;7533;51.278;12.588;2023-02-28T06:58:52;101568.34;;;19.80;61.51
14882;BME280;7533;51.278;12.588;2023-02-28T07:03:55;101575.63;;;19.78;61.70
14882;BME280;7533;51.278;12.588;2023-02-28T07:08:58;101585.50;;;19.77;61.57
14882;BME280;7533;51.278;12.588;2023-02-28T07:14:03;101582.81;;;19.77;61.55
14882;BME280;7533;51.278;12.588;2023-02-28T07:19:06;101592.69;;;19.77;61.60
14882;BME280;7533;51.278;12.588;2023-02-28T07:24:08;101581.09;;;19.75;61.60
14882;BME280;7533;51.278;12.588;2023-02-28T07:29:13;101588.28;;;19.74;61.75
14882;BME280;7533;51.278;12.588;2023-02-28T07:34:16;101594.53;;;19.75;61.66
14882;BME280;7533;51.278;12.588;2023-02-28T07:39:20;101591.19;;;19.70;61.65
14882;BME280;7533;51.278;12.588;2023-02-28T07:44:26;101584.00;;;19.70;61.47
14882;BME280;7533;51.278;12.588;2023-02-28T07:49:28;101596.50;;;19.71;61.40
14882;BME280;7533;51.278;12.588;2023-02-28T07:54:32;101601.88;;;19.71;61.49
14882;BME280;7533;51.278;12.588;2023-02-28T07:59:36;101598.34;;;19.69;61.26
14882;BME280;7533;51.278;12.588;2023-02-28T08:04:39;101609.03;;;16.54;46.51
14882;BME280;7533;51.278;12.588;2023-02-28T08:09:42;101605.88;;;14.90;44.07
14882;BME280;7533;51.278;12.588;2023-02-28T08:14:46;101605.44;;;16.55;43.41
14882;BME280;7533;51.278;12.588;2023-02-28T08:19:49;101596.91;;;18.17;43.18
14882;BME280;7533;51.278;12.588;2023-02-28T08:24:52;101591.81;;;18.84;43.84
14882;BME280;7533;51.278;12.588;2023-02-28T08:29:56;101597.66;;;19.19;44.41
14882;BME280;7533;51.278;12.588;2023-02-28T08:34:58;101599.47;;;19.42;45.23
14882;BME280;7533;51.278;12.588;2023-02-28T08:40:01;101608.53;;;19.61;46.10
14882;BME280;7533;51.278;12.588;2023-02-28T08:45:07;101594.59;;;19.73;46.92
14882;BME280;7533;51.278;12.588;2023-02-28T08:50:10;101593.97;;;19.89;47.55
14882;BME280;7533;51.278;12.588;2023-02-28T08:55:16;101605.25;;;19.97;48.26
14882;BME280;7533;51.278;12.588;2023-02-28T09:00:21;101604.97;;;20.04;48.71
14882;BME280;7533;51.278;12.588;2023-02-28T09:05:24;101597.50;;;20.11;49.39
14882;BME280;7533;51.278;12.588;2023-02-28T09:10:27;101609.72;;;20.18;49.81
14882;BME280;7533;51.278;12.588;2023-02-28T09:15:32;101605.91;;;20.24;50.29
14882;BME280;7533;51.278;12.588;2023-02-28T09:20:37;101609.28;;;20.29;50.65
14882;BME280;7533;51.278;12.588;2023-02-28T09:25:45;101608.28;;;20.31;51.44
14882;BME280;7533;51.278;12.588;2023-02-28T09:30:52;101605.38;;;20.36;51.79
14882;BME280;7533;51.278;12.588;2023-02-28T09:35:58;101599.78;;;20.41;52.33
14882;BME280;7533;51.278;12.588;2023-02-28T09:41:04;101605.06;;;20.44;52.49
14882;BME280;7533;51.278;12.588;2023-02-28T09:46:25;101598.72;;;20.45;52.86
14882;BME280;7533;51.278;12.588;2023-02-28T09:51:43;101603.19;;;20.46;53.05
14882;BME280;7533;51.278;12.588;2023-02-28T09:56:51;101604.00;;;20.48;53.16
14882;BME280;7533;51.278;12.588;2023-02-28T10:02:03;101602.13;;;20.50;53.61
14882;BME280;7533;51.278;12.588;2023-02-28T10:07:19;101601.94;;;20.54;53.69
14882;BME280;7533;51.278;12.588;2023-02-28T10:12:25;101599.09;;;20.57;53.71
14882;BME280;7533;51.278;12.588;2023-02-28T10:17:37;101598.09;;;20.60;53.94
14882;BME280;7533;51.278;12.588;2023-02-28T10:22:58;101596.13;;;20.64;54.05
14882;BME280;7533;51.278;12.588;2023-02-28T10:28:10;101597.72;;;20.68;54.06
14882;BME280;7533;51.278;12.588;2023-02-28T10:33:22;101592.22;;;20.71;54.38
14882;BME280;7533;51.278;12.588;2023-02-28T10:38:28;101595.63;;;20.74;54.45
14882;BME280;7533;51.278;12.588;2023-02-28T10:43:31;101590.13;;;20.77;54.70
14882;BME280;7533;51.278;12.588;2023-02-28T10:48:37;101580.94;;;20.81;54.88
14882;BME280;7533;51.278;12.588;2023-02-28T10:53:47;101579.94;;;20.84;54.81
14882;BME280;7533;51.278;12.588;2023-02-28T10:59:03;101571.72;;;20.87;55.12
14882;BME280;7533;51.278;12.588;2023-02-28T11:04:20;101568.81;;;20.92;55.14
14882;BME280;7533;51.278;12.588;2023-02-28T11:09:36;101555.22;;;20.95;55.16
14882;BME280;7533;51.278;12.588;2023-02-28T11:14:47;101552.25;;;21.01;55.35
14882;BME280;7533;51.278;12.588;2023-02-28T11:19:56;101556.69;;;21.02;55.14
14882;BME280;7533;51.278;12.588;2023-02-28T11:25:02;101546.47;;;21.08;55.22
14882;BME280;7533;51.278;12.588;2023-02-28T11:30:31;101552.53;;;21.13;55.36
14882;BME280;7533;51.278;12.588;2023-02-28T11:35:38;101557.69;;;21.18;55.62
14882;BME280;7533;51.278;12.588;2023-02-28T11:40:47;101559.66;;;21.14;56.17
14882;BME280;7533;51.278;12.588;2023-02-28T11:46:04;101557.91;;;21.13;56.39
14882;BME280;7533;51.278;12.588;2023-02-28T11:51:15;101558.13;;;21.09;56.80
14882;BME280;7533;51.278;12.588;2023-02-28T11:56:25;101551.06;;;21.06;56.96
14882;BME280;7533;51.278;12.588;2023-02-28T12:01:41;101544.88;;;21.04;57.32
14882;BME280;7533;51.278;12.588;2023-02-28T12:06:54;101546.69;;;21.04;57.36
14882;BME280;7533;51.278;12.588;2023-02-28T12:12:05;101543.97;;;21.05;57.65
14882;BME280;7533;51.278;12.588;2023-02-28T12:17:28;101530.34;;;21.08;57.64
14882;BME280;7533;51.278;12.588;2023-02-28T12:22:43;101532.88;;;21.11;57.64
14882;BME280;7533;51.278;12.588;2023-02-28T12:27:51;101528.16;;;21.17;57.85
14882;BME280;7533;51.278;12.588;2023-02-28T12:32:58;101531.50;;;21.22;57.73
14882;BME280;7533;51.278;12.588;2023-02-28T12:38:10;101522.31;;;21.26;57.76
14882;BME280;7533;51.278;12.588;2023-02-28T12:43:18;101518.59;;;21.28;57.76
14882;BME280;7533;51.278;12.588;2023-02-28T12:48:27;101510.47;;;21.30;57.86
14882;BME280;7533;51.278;12.588;2023-02-28T12:53:43;101502.19;;;21.34;57.88
14882;BME280;7533;51.278;12.588;2023-02-28T12:58:54;101504.69;;;21.37;57.81
14882;BME280;7533;51.278;12.588;2023-02-28T13:04:28;101494.66;;;21.41;57.80
14882;BME280;7533;51.278;12.588;2023-02-28T13:09:37;101489.13;;;21.44;57.73
14882;BME280;7533;51.278;12.588;2023-02-28T13:14:40;101492.63;;;21.46;57.61
14882;BME280;7533;51.278;12.588;2023-02-28T13:19:45;101485.31;;;21.48;57.78
14882;BME280;7533;51.278;12.588;2023-02-28T13:24:52;101491.44;;;21.52;57.93
14882;BME280;7533;51.278;12.588;2023-02-28T13:29:55;101484.94;;;21.56;57.70
14882;BME280;7533;51.278;12.588;2023-02-28T13:40:35;101492.00;;;21.76;57.31
14882;BME280;7533;51.278;12.588;2023-02-28T13:46:10;101482.03;;;21.78;56.74
14882;BME280;7533;51.278;12.588;2023-02-28T13:51:35;101484.09;;;21.73;56.76
14882;BME280;7533;51.278;12.588;2023-02-28T13:56:48;101471.25;;;21.78;57.17
14882;BME280;7533;51.278;12.588;2023-02-28T14:02:12;101470.34;;;20.69;51.82
14882;BME280;7533;51.278;12.588;2023-02-28T14:07:26;101468.09;;;19.15;45.97
14882;BME280;7533;51.278;12.588;2023-02-28T14:13:00;101464.56;;;17.18;40.64
14882;BME280;7533;51.278;12.588;2023-02-28T14:18:14;101452.28;;;20.13;42.74
14882;BME280;7533;51.278;12.588;2023-02-28T14:23:30;101453.19;;;20.71;46.58
14882;BME280;7533;51.278;12.588;2023-02-28T14:28:47;101456.44;;;20.97;50.44
14882;BME280;7533;51.278;12.588;2023-02-28T14:34:04;101448.97;;;21.21;49.50
14882;BME280;7533;51.278;12.588;2023-02-28T14:39:15;101457.50;;;21.30;49.51
14882;BME280;7533;51.278;12.588;2023-02-28T14:44:22;101458.59;;;21.44;49.94
14882;BME280;7533;51.278;12.588;2023-02-28T14:49:27;101448.88;;;21.58;50.05
14882;BME280;7533;51.278;12.588;2023-02-28T14:54:31;101443.47;;;21.76;50.10
14882;BME280;7533;51.278;12.588;2023-02-28T14:59:36;101439.22;;;21.89;50.21
14882;BME280;7533;51.278;12.588;2023-02-28T15:04:39;101443.72;;;22.06;50.42
14882;BME280;7533;51.278;12.588;2023-02-28T15:09:43;101441.94;;;22.05;50.95
14882;BME280;7533;51.278;12.588;2023-02-28T15:14:47;101446.09;;;18.84;38.44
14882;BME280;7533;51.278;12.588;2023-02-28T15:19:53;101444.69;;;18.27;37.54
14882;BME280;7533;51.278;12.588;2023-02-28T15:24:57;101445.66;;;17.49;37.00
14882;BME280;7533;51.278;12.588;2023-02-28T15:30:05;101447.22;;;19.22;36.92
14882;BME280;7533;51.278;12.588;2023-02-28T15:35:24;101448.66;;;20.53;38.51
14882;BME280;7533;51.278;12.588;2023-02-28T15:40:31;101446.78;;;19.33;34.96
14882;BME280;7533;51.278;12.588;2023-02-28T15:45:41;101443.59;;;18.79;36.44
14882;BME280;7533;51.278;12.588;2023-02-28T15:50:50;101451.59;;;20.48;38.66
14882;BME280;7533;51.278;12.588;2023-02-28T15:56:01;101448.13;;;21.01;40.33
14882;BME280;7533;51.278;12.588;2023-02-28T16:01:16;101450.59;;;19.05;37.09
14882;BME280;7533;51.278;12.588;2023-02-28T16:06:33;101456.16;;;18.07;37.75
14882;BME280;7533;51.278;12.588;2023-02-28T16:11:40;101452.66;;;18.76;36.03
14882;BME280;7533;51.278;12.588;2023-02-28T16:16:46;101454.06;;;19.51;38.22
14882;BME280;7533;51.278;12.588;2023-02-28T16:21:50;101451.88;;;20.22;39.63
14882;BME280;7533;51.278;12.588;2023-02-28T16:26:55;101454.28;;;20.48;40.67
14882;BME280;7533;51.278;12.588;2023-02-28T16:32:01;101449.41;;;19.97;37.08
14882;BME280;7533;51.278;12.588;2023-02-28T16:37:11;101455.66;;;19.97;38.87
14882;BME280;7533;51.278;12.588;2023-02-28T16:42:17;101450.28;;;20.37;41.11
14882;BME280;7533;51.278;12.588;2023-02-28T16:47:24;101450.69;;;20.48;42.66
14882;BME280;7533;51.278;12.588;2023-02-28T16:52:28;101454.13;;;20.51;43.51
14882;BME280;7533;51.278;12.588;2023-02-28T16:57:31;101459.75;;;20.45;44.25
14882;BME280;7533;51.278;12.588;2023-02-28T17:02:35;101464.94;;;20.50;45.29
14882;BME280;7533;51.278;12.588;2023-02-28T17:07:42;101469.50;;;20.48;45.57
14882;BME280;7533;51.278;12.588;2023-02-28T17:12:45;101476.59;;;20.50;46.29
14882;BME280;7533;51.278;12.588;2023-02-28T17:17:49;101486.19;;;20.56;46.86
14882;BME280;7533;51.278;12.588;2023-02-28T17:22:53;101486.75;;;20.63;47.32
14882;BME280;7533;51.278;12.588;2023-02-28T17:27:56;101478.56;;;20.66;47.50
14882;BME280;7533;51.278;12.588;2023-02-28T17:33:00;101477.44;;;20.70;47.83
14882;BME280;7533;51.278;12.588;2023-02-28T17:38:03;101491.56;;;20.75;48.00
14882;BME280;7533;51.278;12.588;2023-02-28T17:43:06;101495.00;;;20.78;48.24
14882;BME280;7533;51.278;12.588;2023-02-28T17:48:11;101492.22;;;20.80;48.49
14882;BME280;7533;51.278;12.588;2023-02-28T17:53:14;101485.03;;;20.80;48.79
14882;BME280;7533;51.278;12.588;2023-02-28T17:58:17;101471.50;;;20.82;49.01
14882;BME280;7533;51.278;12.588;2023-02-28T18:03:22;101475.78;;;20.86;49.15
14882;BME280;7533;51.278;12.588;2023-02-28T18:08:25;101471.22;;;20.88;49.37
14882;BME280;7533;51.278;12.588;2023-02-28T18:13:28;101480.88;;;20.92;49.46
14882;BME280;7533;51.278;12.588;2023-02-28T18:18:33;101496.00;;;20.95;49.41
14882;BME280;7533;51.278;12.588;2023-02-28T18:23:38;101495.16;;;20.94;49.66
14882;BME280;7533;51.278;12.588;2023-02-28T18:28:48;101489.69;;;20.96;49.69
14882;BME280;7533;51.278;12.588;2023-02-28T18:33:52;101481.69;;;20.94;49.70
14882;BME280;7533;51.278;12.588;2023-02-28T18:38:55;101479.88;;;20.95;49.63
14882;BME280;7533;51.278;12.588;2023-02-28T18:43:59;101476.22;;;20.96;49.52
14882;BME280;7533;51.278;12.588;2023-02-28T18:49:20;101469.88;;;20.97;49.60
14882;BME280;7533;51.278;12.588;2023-02-28T18:54:23;101477.97;;;20.97;49.43
14882;BME280;7533;51.278;12.588;2023-02-28T18:59:26;101472.50;;;20.98;49.56
14882;BME280;7533;51.278;12.588;2023-02-28T19:04:30;101474.31;;;20.98;49.33
14882;BME280;7533;51.278;12.588;2023-02-28T19:09:34;101477.16;;;20.95;49.30
14882;BME280;7533;51.278;12.588;2023-02-28T19:14:37;101478.47;;;21.05;49.76
14882;BME280;7533;51.278;12.588;2023-02-28T19:19:41;101473.66;;;21.11;50.00
14882;BME280;7533;51.278;12.588;2023-02-28T19:24:44;101470.75;;;21.16;50.08
14882;BME280;7533;51.278;12.588;2023-02-28T19:29:48;101474.22;;;21.18;50.18
14882;BME280;7533;51.278;12.588;2023-02-28T19:34:53;101475.81;;;21.22;50.22
14882;BME280;7533;51.278;12.588;2023-02-28T19:39:55;101477.56;;;21.23;50.13
14882;BME280;7533;51.278;12.588;2023-02-28T19:44:59;101477.69;;;21.20;50.49
14882;BME280;7533;51.278;12.588;2023-02-28T19:50:04;101484.56;;;21.27;50.18
14882;BME280;7533;51.278;12.588;2023-02-28T19:55:08;101487.16;;;21.29;50.35
14882;BME280;7533;51.278;12.588;2023-02-28T20:00:14;101491.63;;;21.30;50.37
14882;BME280;7533;51.278;12.588;2023-02-28T20:05:18;101489.81;;;21.30;50.41
14882;BME280;7533;51.278;12.588;2023-02-28T20:10:21;101492.41;;;21.32;50.52
14882;BME280;7533;51.278;12.588;2023-02-28T20:15:25;101492.38;;;21.33;50.30
14882;BME280;7533;51.278;12.588;2023-02-28T20:20:30;101478.81;;;21.35;50.52
14882;BME280;7533;51.278;12.588;2023-02-28T20:25:38;101501.31;;;21.34;50.43
14882;BME280;7533;51.278;12.588;2023-02-28T20:30:41;101502.25;;;21.33;50.39
14882;BME280;7533;51.278;12.588;2023-02-28T20:35:46;101502.09;;;21.36;50.11
14882;BME280;7533;51.278;12.588;2023-02-28T20:40:53;101505.66;;;21.36;50.21
14882;BME280;7533;51.278;12.588;2023-02-28T20:45:57;101496.56;;;21.39;50.22
14882;BME280;7533;51.278;12.588;2023-02-28T20:51:04;101493.78;;;21.41;50.38
14882;BME280;7533;51.278;12.588;2023-02-28T20:56:11;101493.69;;;21.42;50.30
14882;BME280;7533;51.278;12.588;2023-02-28T21:01:17;101497.03;;;21.47;50.14
14882;BME280;7533;51.278;12.588;2023-02-28T21:06:23;101494.25;;;21.49;50.23
14882;BME280;7533;51.278;12.588;2023-02-28T21:11:28;101488.00;;;21.48;50.44
14882;BME280;7533;51.278;12.588;2023-02-28T21:16:31;101485.19;;;21.51;50.40
14882;BME280;7533;51.278;12.588;2023-02-28T21:21:41;101482.47;;;21.51;50.61
14882;BME280;7533;51.278;12.588;2023-02-28T21:26:45;101488.56;;;21.55;50.48
14882;BME280;7533;51.278;12.588;2023-02-28T21:31:49;101494.78;;;21.57;50.57
14882;BME280;7533;51.278;12.588;2023-02-28T21:36:54;101490.25;;;21.57;50.70
14882;BME280;7533;51.278;12.588;2023-02-28T21:41:57;101497.56;;;21.55;50.69
14882;BME280;7533;51.278;12.588;2023-02-28T21:47:04;101486.69;;;21.57;50.80
14882;BME280;7533;51.278;12.588;2023-02-28T21:52:08;101485.50;;;21.62;50.83
14882;BME280;7533;51.278;12.588;2023-02-28T21:57:11;101482.00;;;21.60;50.93
14882;BME280;7533;51.278;12.588;2023-02-28T22:02:16;101485.50;;;21.62;51.05
14882;BME280;7533;51.278;12.588;2023-02-28T22:07:20;101477.41;;;21.62;50.87
14882;BME280;7533;51.278;12.588;2023-02-28T22:12:23;101480.97;;;21.63;51.01
14882;BME280;7533;51.278;12.588;2023-02-28T22:17:27;101474.81;;;21.61;51.10
14882;BME280;7533;51.278;12.588;2023-02-28T22:22:31;101475.81;;;21.58;51.29
14882;BME280;7533;51.278;12.588;2023-02-28T22:27:34;101481.38;;;21.55;51.30
14882;BME280;7533;51.278;12.588;2023-02-28T22:32:36;101478.75;;;21.54;51.40
14882;BME280;7533;51.278;12.588;2023-02-28T22:37:40;101477.09;;;21.51;51.48
14882;BME280;7533;51.278;12.588;2023-02-28T22:42:43;101474.53;;;21.48;51.74
14882;BME280;7533;51.278;12.588;2023-02-28T22:47:47;101472.81;;;21.47;51.68
14882;BME280;7533;51.278;12.588;2023-02-28T22:52:51;101480.09;;;21.45;51.70
14882;BME280;7533;51.278;12.588;2023-02-28T22:57:54;101473.91;;;21.43;52.04
14882;BME280;7533;51.278;12.588;2023-02-28T23:02:57;101475.91;;;21.39;52.28
14882;BME280;7533;51.278;12.588;2023-02-28T23:08:01;101478.63;;;21.38;52.33
14882;BME280;7533;51.278;12.588;2023-02-28T23:13:04;101487.69;;;21.37;52.26
14882;BME280;7533;51.278;12.588;2023-02-28T23:18:07;101499.47;;;21.34;52.50
14882;BME280;7533;51.278;12.588;2023-02-28T23:23:11;101506.00;;;21.29;52.60
14882;BME280;7533;51.278;12.588;2023-02-28T23:28:14;101516.22;;;21.22;53.14
14882;BME280;7533;51.278;12.588;2023-02-28T23:33:17;101513.81;;;21.16;53.23
14882;BME280;7533;51.278;12.588;2023-02-28T23:38:21;101519.44;;;21.11;53.52
14882;BME280;7533;51.278;12.588;2023-02-28T23:43:24;101518.84;;;21.05;53.63
14882;BME280;7533;51.278;12.588;2023-02-28T23:48:27;101519.94;;;21.01;53.97
14882;BME280;7533;51.278;12.588;2023-02-28T23:53:31;101518.25;;;20.98;54.01
14882;BME280;7533;51.278;12.588;2023-02-28T23:58:35;101510.41;;;20.94;54.16
